Castle, OK

12:40 PM CST on December 28, 2014 (GMT -0600)
ARLINGTON, OK (6 mi N of Prague) | Change Station
CLOSE
Current Station
Personal Weather Station
Location: Prague, OK
Elevation: 1020 ft
Nearby Weather Stations

Elev 1020 ft 35.49 °N, 96.69 °W | Updated 8 seconds ago

Clear
Clear
37.3 °F
Feels Like 34 °F
N
4.0
Wind Variable Wind from NNW
Gusts 6.0 mph

Today
High -- | Low -- °F
--% Chance of Precip.
Yesterday
High -- | Low -- °F
Precip. -- in
7:33 AM 5:20 PM
Waxing Crescent, 50% visible
Pressure 30.22 in
Visibility 10.0 miles
Clouds Clear
Windchill 34 °F
Dew Point 26 °F
Humidity 62%
Rainfall 0.05 in
Snow Depth Not available.
UV 3 out of 12
Pollen 5.10 out of 12
Air Quality Not available.
Flu Activity Not available.
METAR KOKM 281835Z AUTO 15004KT 10SM CLR 02/M05 A3022 RMK AO2 T00201047

More Conditions Fewer Conditions

Pressure 30.22 in
Visibility 10.0 miles
Clouds Clear
Windchill 34 °F
Dew Point 26 °F
Humidity 62%
Rainfall 0.05 in
Snow Depth Not available.
UV 3 out of 12
Pollen 5.10 out of 12
Air Quality Not available.
Flu Activity Not available.
METAR KOKM 281835Z AUTO 15004KT 10SM CLR 02/M05 A3022 RMK AO2 T00201047

More Conditions Fewer Conditions

10-Day Weather Forecast

Almanac

Astronomy

Dec. 28, 2014 Rise Set
Actual Time
Civil Twilight
Nautical Twilight
Astronomical Twilight
Moon
Length of Visible Light
Length of Day
Tomorrow will be .
, % of the Moon is Illuminated

Today's Extremes

State Highs State Lows

Community

WunderPhotos

Upload Photos

1,781,383 photos uploaded!

WunderBlogs® & News

Nearby

Air Quality

  Air Quality AQ Index Pollutant
Not available.

Snow Depth

Station Depth Elevation

Earthquake Activity

City Distance Mag. Time & Date
Minimum magnitude displayed is 2.5.

Coastal Water Temperatures

Place Temperature

Nearby Weather Stations